sensor_id;sensor_type;location;lat;lon;timestamp;temperature;humidity
53962;DHT22;39868;53.398;6.564;2023-07-29T00:01:40;21.20;79.40
53962;DHT22;39868;53.398;6.564;2023-07-29T00:04:08;21.20;79.40
53962;DHT22;39868;53.398;6.564;2023-07-29T00:06:36;21.20;79.40
53962;DHT22;39868;53.398;6.564;2023-07-29T00:09:04;21.10;79.40
53962;DHT22;39868;53.398;6.564;2023-07-29T00:11:31;21.10;79.50
53962;DHT22;39868;53.398;6.564;2023-07-29T00:14:01;21.20;79.60
53962;DHT22;39868;53.398;6.564;2023-07-29T00:16:28;21.10;79.60
53962;DHT22;39868;53.398;6.564;2023-07-29T00:18:55;21.20;79.70
53962;DHT22;39868;53.398;6.564;2023-07-29T00:21:22;21.20;79.70
53962;DHT22;39868;53.398;6.564;2023-07-29T00:23:52;21.20;79.80
53962;DHT22;39868;53.398;6.564;2023-07-29T00:26:19;21.20;79.80
53962;DHT22;39868;53.398;6.564;2023-07-29T00:28:48;21.20;79.80
53962;DHT22;39868;53.398;6.564;2023-07-29T00:31:15;21.20;79.90
53962;DHT22;39868;53.398;6.564;2023-07-29T00:33:43;21.30;80.00
53962;DHT22;39868;53.398;6.564;2023-07-29T00:36:10;21.30;80.00
53962;DHT22;39868;53.398;6.564;2023-07-29T00:38:37;21.30;80.00
53962;DHT22;39868;53.398;6.564;2023-07-29T00:41:04;21.30;80.00
53962;DHT22;39868;53.398;6.564;2023-07-29T00:43:32;21.30;80.10
53962;DHT22;39868;53.398;6.564;2023-07-29T00:46:01;21.30;80.60
53962;DHT22;39868;53.398;6.564;2023-07-29T00:48:29;21.40;80.10
53962;DHT22;39868;53.398;6.564;2023-07-29T00:50:56;21.40;80.10
53962;DHT22;39868;53.398;6.564;2023-07-29T00:53:23;21.40;80.10
53962;DHT22;39868;53.398;6.564;2023-07-29T00:55:51;21.40;80.10
53962;DHT22;39868;53.398;6.564;2023-07-29T00:58:18;21.40;80.20
53962;DHT22;39868;53.398;6.564;2023-07-29T01:00:46;21.40;80.20
53962;DHT22;39868;53.398;6.564;2023-07-29T01:03:14;21.40;80.20
53962;DHT22;39868;53.398;6.564;2023-07-29T01:05:49;21.40;80.20
53962;DHT22;39868;53.398;6.564;2023-07-29T01:13:54;21.40;80.20
53962;DHT22;39868;53.398;6.564;2023-07-29T01:16:24;21.40;80.30
53962;DHT22;39868;53.398;6.564;2023-07-29T01:18:54;21.50;80.30
53962;DHT22;39868;53.398;6.564;2023-07-29T01:21:22;21.50;80.30
53962;DHT22;39868;53.398;6.564;2023-07-29T01:23:57;21.50;80.30
53962;DHT22;39868;53.398;6.564;2023-07-29T01:26:25;21.50;80.30
53962;DHT22;39868;53.398;6.564;2023-07-29T01:28:55;21.50;80.30
53962;DHT22;39868;53.398;6.564;2023-07-29T01:31:32;21.50;80.40
53962;DHT22;39868;53.398;6.564;2023-07-29T01:36:51;21.50;80.30
53962;DHT22;39868;53.398;6.564;2023-07-29T01:39:21;21.50;80.30
53962;DHT22;39868;53.398;6.564;2023-07-29T01:41:49;21.50;80.30
53962;DHT22;39868;53.398;6.564;2023-07-29T01:44:18;21.50;80.30
53962;DHT22;39868;53.398;6.564;2023-07-29T01:46:46;21.50;80.30
53962;DHT22;39868;53.398;6.564;2023-07-29T01:49:14;21.50;80.40
53962;DHT22;39868;53.398;6.564;2023-07-29T01:51:41;21.50;80.40
53962;DHT22;39868;53.398;6.564;2023-07-29T01:54:08;21.50;80.40
53962;DHT22;39868;53.398;6.564;2023-07-29T01:56:36;21.50;80.40
53962;DHT22;39868;53.398;6.564;2023-07-29T01:59:04;21.50;80.40
53962;DHT22;39868;53.398;6.564;2023-07-29T02:01:31;21.50;80.40
53962;DHT22;39868;53.398;6.564;2023-07-29T02:03:59;21.50;80.70
53962;DHT22;39868;53.398;6.564;2023-07-29T02:06:26;21.50;80.40
53962;DHT22;39868;53.398;6.564;2023-07-29T02:08:55;21.50;80.40
53962;DHT22;39868;53.398;6.564;2023-07-29T02:11:22;21.50;80.40
53962;DHT22;39868;53.398;6.564;2023-07-29T02:13:55;21.50;80.50
53962;DHT22;39868;53.398;6.564;2023-07-29T02:16:22;21.50;80.50
53962;DHT22;39868;53.398;6.564;2023-07-29T02:18:50;21.50;80.50
53962;DHT22;39868;53.398;6.564;2023-07-29T02:21:21;21.50;80.50
53962;DHT22;39868;53.398;6.564;2023-07-29T02:23:49;21.50;80.50
53962;DHT22;39868;53.398;6.564;2023-07-29T02:26:16;21.50;80.50
53962;DHT22;39868;53.398;6.564;2023-07-29T02:28:44;21.40;80.40
53962;DHT22;39868;53.398;6.564;2023-07-29T02:31:14;21.50;80.50
53962;DHT22;39868;53.398;6.564;2023-07-29T02:33:42;21.50;80.50
53962;DHT22;39868;53.398;6.564;2023-07-29T02:36:10;21.40;80.50
53962;DHT22;39868;53.398;6.564;2023-07-29T02:38:39;21.40;80.60
53962;DHT22;39868;53.398;6.564;2023-07-29T02:41:06;21.40;80.60
53962;DHT22;39868;53.398;6.564;2023-07-29T02:43:35;21.40;80.50
53962;DHT22;39868;53.398;6.564;2023-07-29T02:46:03;21.40;80.60
53962;DHT22;39868;53.398;6.564;2023-07-29T02:48:30;21.40;80.60
53962;DHT22;39868;53.398;6.564;2023-07-29T02:50:58;21.40;80.60
53962;DHT22;39868;53.398;6.564;2023-07-29T02:53:25;21.40;80.60
53962;DHT22;39868;53.398;6.564;2023-07-29T02:55:52;21.40;80.60
53962;DHT22;39868;53.398;6.564;2023-07-29T02:58:20;21.40;80.60
53962;DHT22;39868;53.398;6.564;2023-07-29T03:00:47;21.30;80.60
53962;DHT22;39868;53.398;6.564;2023-07-29T03:03:17;21.30;80.60
53962;DHT22;39868;53.398;6.564;2023-07-29T03:05:45;21.30;80.60
53962;DHT22;39868;53.398;6.564;2023-07-29T03:08:13;21.30;80.60
53962;DHT22;39868;53.398;6.564;2023-07-29T03:10:40;21.30;80.70
53962;DHT22;39868;53.398;6.564;2023-07-29T03:13:09;21.30;80.70
53962;DHT22;39868;53.398;6.564;2023-07-29T03:15:36;21.30;80.70
53962;DHT22;39868;53.398;6.564;2023-07-29T03:18:04;21.30;80.70
53962;DHT22;39868;53.398;6.564;2023-07-29T03:20:32;21.30;80.70
53962;DHT22;39868;53.398;6.564;2023-07-29T03:22:59;21.20;80.70
53962;DHT22;39868;53.398;6.564;2023-07-29T03:25:26;21.20;80.70
53962;DHT22;39868;53.398;6.564;2023-07-29T03:27:53;21.20;80.70
53962;DHT22;39868;53.398;6.564;2023-07-29T03:30:21;21.20;80.70
53962;DHT22;39868;53.398;6.564;2023-07-29T03:32:50;21.20;80.70
53962;DHT22;39868;53.398;6.564;2023-07-29T03:35:17;21.20;80.70
53962;DHT22;39868;53.398;6.564;2023-07-29T03:37:45;21.10;80.70
53962;DHT22;39868;53.398;6.564;2023-07-29T03:40:13;21.10;80.70
53962;DHT22;39868;53.398;6.564;2023-07-29T03:42:40;21.10;80.70
53962;DHT22;39868;53.398;6.564;2023-07-29T03:45:07;21.10;80.80
53962;DHT22;39868;53.398;6.564;2023-07-29T03:47:35;21.10;80.80
53962;DHT22;39868;53.398;6.564;2023-07-29T03:50:02;21.00;80.70
53962;DHT22;39868;53.398;6.564;2023-07-29T03:52:29;21.00;80.70
53962;DHT22;39868;53.398;6.564;2023-07-29T03:54:57;21.00;80.70
53962;DHT22;39868;53.398;6.564;2023-07-29T03:57:24;21.00;80.70
53962;DHT22;39868;53.398;6.564;2023-07-29T03:59:51;21.00;80.70
53962;DHT22;39868;53.398;6.564;2023-07-29T04:02:18;21.00;80.70
53962;DHT22;39868;53.398;6.564;2023-07-29T04:04:46;21.00;80.70
53962;DHT22;39868;53.398;6.564;2023-07-29T04:07:15;20.90;80.70
53962;DHT22;39868;53.398;6.564;2023-07-29T04:09:42;20.90;80.70
53962;DHT22;39868;53.398;6.564;2023-07-29T04:12:10;20.90;80.70
53962;DHT22;39868;53.398;6.564;2023-07-29T04:14:38;20.80;80.70
53962;DHT22;39868;53.398;6.564;2023-07-29T04:17:05;20.80;80.70
53962;DHT22;39868;53.398;6.564;2023-07-29T04:19:32;20.80;80.70
53962;DHT22;39868;53.398;6.564;2023-07-29T04:22:00;20.80;80.80
53962;DHT22;39868;53.398;6.564;2023-07-29T04:24:27;20.80;80.80
53962;DHT22;39868;53.398;6.564;2023-07-29T04:26:55;20.80;80.80
53962;DHT22;39868;53.398;6.564;2023-07-29T04:29:22;20.70;80.80
53962;DHT22;39868;53.398;6.564;2023-07-29T04:31:50;20.80;80.90
53962;DHT22;39868;53.398;6.564;2023-07-29T04:34:18;20.70;80.90
53962;DHT22;39868;53.398;6.564;2023-07-29T04:36:46;20.70;80.90
53962;DHT22;39868;53.398;6.564;2023-07-29T04:39:14;20.70;80.90
53962;DHT22;39868;53.398;6.564;2023-07-29T04:41:41;20.70;80.90
53962;DHT22;39868;53.398;6.564;2023-07-29T04:44:09;20.70;81.00
53962;DHT22;39868;53.398;6.564;2023-07-29T04:46:36;20.70;81.00
53962;DHT22;39868;53.398;6.564;2023-07-29T04:49:04;20.70;81.00
53962;DHT22;39868;53.398;6.564;2023-07-29T04:51:32;20.70;81.10
53962;DHT22;39868;53.398;6.564;2023-07-29T04:53:59;20.70;81.10
53962;DHT22;39868;53.398;6.564;2023-07-29T04:56:27;20.70;81.10
53962;DHT22;39868;53.398;6.564;2023-07-29T04:58:54;20.70;81.10
53962;DHT22;39868;53.398;6.564;2023-07-29T05:01:21;20.70;81.20
53962;DHT22;39868;53.398;6.564;2023-07-29T05:03:49;20.70;81.20
53962;DHT22;39868;53.398;6.564;2023-07-29T05:06:16;20.70;81.20
53962;DHT22;39868;53.398;6.564;2023-07-29T05:08:43;20.70;81.30
53962;DHT22;39868;53.398;6.564;2023-07-29T05:11:11;20.70;81.30
53962;DHT22;39868;53.398;6.564;2023-07-29T05:13:39;20.70;81.30
53962;DHT22;39868;53.398;6.564;2023-07-29T05:16:07;20.80;81.40
53962;DHT22;39868;53.398;6.564;2023-07-29T05:18:34;20.70;81.30
53962;DHT22;39868;53.398;6.564;2023-07-29T05:21:02;20.70;81.30
53962;DHT22;39868;53.398;6.564;2023-07-29T05:23:29;20.70;81.40
53962;DHT22;39868;53.398;6.564;2023-07-29T05:25:56;20.80;81.40
53962;DHT22;39868;53.398;6.564;2023-07-29T05:28:24;20.80;81.50
53962;DHT22;39868;53.398;6.564;2023-07-29T05:30:51;20.80;81.50
53962;DHT22;39868;53.398;6.564;2023-07-29T05:33:19;20.80;81.50
53962;DHT22;39868;53.398;6.564;2023-07-29T05:35:46;20.80;81.50
53962;DHT22;39868;53.398;6.564;2023-07-29T05:38:14;20.80;81.50
53962;DHT22;39868;53.398;6.564;2023-07-29T05:40:41;20.80;81.50
53962;DHT22;39868;53.398;6.564;2023-07-29T05:43:09;20.80;81.50
53962;DHT22;39868;53.398;6.564;2023-07-29T05:45:36;20.80;81.50
53962;DHT22;39868;53.398;6.564;2023-07-29T05:48:04;20.80;81.50
53962;DHT22;39868;53.398;6.564;2023-07-29T05:50:31;20.90;81.60
53962;DHT22;39868;53.398;6.564;2023-07-29T05:53:00;20.80;81.50
53962;DHT22;39868;53.398;6.564;2023-07-29T05:55:27;20.80;81.50
53962;DHT22;39868;53.398;6.564;2023-07-29T05:57:54;20.80;81.70
53962;DHT22;39868;53.398;6.564;2023-07-29T06:00:22;20.80;81.50
53962;DHT22;39868;53.398;6.564;2023-07-29T06:02:49;20.80;81.50
53962;DHT22;39868;53.398;6.564;2023-07-29T06:05:20;20.90;81.60
53962;DHT22;39868;53.398;6.564;2023-07-29T06:07:47;20.90;81.60
53962;DHT22;39868;53.398;6.564;2023-07-29T06:10:15;20.90;81.60
53962;DHT22;39868;53.398;6.564;2023-07-29T06:12:46;20.90;81.60
53962;DHT22;39868;53.398;6.564;2023-07-29T06:15:13;20.90;81.60
53962;DHT22;39868;53.398;6.564;2023-07-29T06:17:41;20.90;81.60
53962;DHT22;39868;53.398;6.564;2023-07-29T06:20:08;20.90;81.60
53962;DHT22;39868;53.398;6.564;2023-07-29T06:22:36;20.90;81.70
53962;DHT22;39868;53.398;6.564;2023-07-29T06:25:04;20.90;81.70
53962;DHT22;39868;53.398;6.564;2023-07-29T06:27:31;21.00;81.70
53962;DHT22;39868;53.398;6.564;2023-07-29T06:29:58;21.00;81.80
53962;DHT22;39868;53.398;6.564;2023-07-29T06:32:25;21.00;81.80
53962;DHT22;39868;53.398;6.564;2023-07-29T06:34:53;21.00;81.70
53962;DHT22;39868;53.398;6.564;2023-07-29T06:37:21;21.00;81.70
53962;DHT22;39868;53.398;6.564;2023-07-29T06:39:49;21.10;81.80
53962;DHT22;39868;53.398;6.564;2023-07-29T06:42:16;21.10;81.90
53962;DHT22;39868;53.398;6.564;2023-07-29T06:44:43;21.10;81.90
53962;DHT22;39868;53.398;6.564;2023-07-29T06:47:12;21.20;81.90
53962;DHT22;39868;53.398;6.564;2023-07-29T06:49:40;21.20;82.00
53962;DHT22;39868;53.398;6.564;2023-07-29T06:52:07;21.30;82.00
53962;DHT22;39868;53.398;6.564;2023-07-29T06:54:34;21.30;82.10
53962;DHT22;39868;53.398;6.564;2023-07-29T06:57:01;21.40;82.20
53962;DHT22;39868;53.398;6.564;2023-07-29T06:59:29;21.40;82.10
53962;DHT22;39868;53.398;6.564;2023-07-29T07:01:56;21.40;82.10
53962;DHT22;39868;53.398;6.564;2023-07-29T07:04:23;21.50;82.10
53962;DHT22;39868;53.398;6.564;2023-07-29T07:06:50;21.50;82.10
53962;DHT22;39868;53.398;6.564;2023-07-29T07:09:17;21.50;82.10
53962;DHT22;39868;53.398;6.564;2023-07-29T07:11:44;21.60;82.00
53962;DHT22;39868;53.398;6.564;2023-07-29T07:14:12;21.60;82.00
53962;DHT22;39868;53.398;6.564;2023-07-29T07:16:39;21.60;82.00
53962;DHT22;39868;53.398;6.564;2023-07-29T07:19:06;21.60;82.00
53962;DHT22;39868;53.398;6.564;2023-07-29T07:21:34;21.70;82.00
53962;DHT22;39868;53.398;6.564;2023-07-29T07:24:01;21.70;82.00
53962;DHT22;39868;53.398;6.564;2023-07-29T07:26:28;21.70;81.90
53962;DHT22;39868;53.398;6.564;2023-07-29T07:28:56;21.80;82.00
53962;DHT22;39868;53.398;6.564;2023-07-29T07:31:23;21.80;82.00
53962;DHT22;39868;53.398;6.564;2023-07-29T07:33:50;21.80;82.00
53962;DHT22;39868;53.398;6.564;2023-07-29T07:36:17;21.90;82.00
53962;DHT22;39868;53.398;6.564;2023-07-29T07:38:45;21.90;81.90
53962;DHT22;39868;53.398;6.564;2023-07-29T07:41:12;22.00;82.00
53962;DHT22;39868;53.398;6.564;2023-07-29T07:43:39;22.00;81.90
53962;DHT22;39868;53.398;6.564;2023-07-29T07:46:06;22.00;81.90
53962;DHT22;39868;53.398;6.564;2023-07-29T07:48:33;22.00;81.80
53962;DHT22;39868;53.398;6.564;2023-07-29T07:51:09;22.10;81.90
53962;DHT22;39868;53.398;6.564;2023-07-29T07:53:36;22.10;81.80
53962;DHT22;39868;53.398;6.564;2023-07-29T07:56:03;22.10;81.70
53962;DHT22;39868;53.398;6.564;2023-07-29T07:58:30;22.10;81.70
53962;DHT22;39868;53.398;6.564;2023-07-29T08:01:04;22.10;81.70
53962;DHT22;39868;53.398;6.564;2023-07-29T08:03:31;22.10;81.70
53962;DHT22;39868;53.398;6.564;2023-07-29T08:05:59;22.10;81.60
53962;DHT22;39868;53.398;6.564;2023-07-29T08:08:26;22.20;81.70
53962;DHT22;39868;53.398;6.564;2023-07-29T08:10:54;22.20;81.60
53962;DHT22;39868;53.398;6.564;2023-07-29T08:13:22;22.20;81.70
53962;DHT22;39868;53.398;6.564;2023-07-29T08:15:49;22.30;81.70
53962;DHT22;39868;53.398;6.564;2023-07-29T08:18:17;22.30;81.70
53962;DHT22;39868;53.398;6.564;2023-07-29T08:20:52;22.30;81.60
53962;DHT22;39868;53.398;6.564;2023-07-29T08:23:20;22.40;81.60
53962;DHT22;39868;53.398;6.564;2023-07-29T08:25:54;22.40;81.70
53962;DHT22;39868;53.398;6.564;2023-07-29T08:28:23;22.40;81.70
53962;DHT22;39868;53.398;6.564;2023-07-29T08:30:50;22.50;81.70
53962;DHT22;39868;53.398;6.564;2023-07-29T08:33:18;22.60;81.70
53962;DHT22;39868;53.398;6.564;2023-07-29T08:35:45;22.60;81.50
53962;DHT22;39868;53.398;6.564;2023-07-29T08:38:12;22.60;81.40
53962;DHT22;39868;53.398;6.564;2023-07-29T08:43:28;22.70;81.20
53962;DHT22;39868;53.398;6.564;2023-07-29T08:45:57;22.80;81.20
53962;DHT22;39868;53.398;6.564;2023-07-29T08:48:43;22.80;81.20
53962;DHT22;39868;53.398;6.564;2023-07-29T08:51:10;22.80;81.10
53962;DHT22;39868;53.398;6.564;2023-07-29T08:53:38;22.90;81.10
53962;DHT22;39868;53.398;6.564;2023-07-29T08:56:06;23.00;81.20
53962;DHT22;39868;53.398;6.564;2023-07-29T08:58:34;23.00;81.10
53962;DHT22;39868;53.398;6.564;2023-07-29T09:01:01;23.00;81.10
53962;DHT22;39868;53.398;6.564;2023-07-29T09:03:29;23.10;81.00
53962;DHT22;39868;53.398;6.564;2023-07-29T09:05:57;23.10;81.00
53962;DHT22;39868;53.398;6.564;2023-07-29T09:08:27;23.20;81.00
53962;DHT22;39868;53.398;6.564;2023-07-29T09:10:55;23.30;81.00
53962;DHT22;39868;53.398;6.564;2023-07-29T09:13:22;23.30;81.00
53962;DHT22;39868;53.398;6.564;2023-07-29T09:15:53;23.40;80.80
53962;DHT22;39868;53.398;6.564;2023-07-29T09:18:21;23.40;80.80
53962;DHT22;39868;53.398;6.564;2023-07-29T09:20:49;23.50;80.50
53962;DHT22;39868;53.398;6.564;2023-07-29T09:23:17;23.50;80.40
53962;DHT22;39868;53.398;6.564;2023-07-29T09:25:45;23.60;80.40
53962;DHT22;39868;53.398;6.564;2023-07-29T09:28:13;23.60;80.30
53962;DHT22;39868;53.398;6.564;2023-07-29T09:30:42;23.60;80.20
53962;DHT22;39868;53.398;6.564;2023-07-29T09:33:10;23.60;80.10
53962;DHT22;39868;53.398;6.564;2023-07-29T09:35:38;23.70;79.90
53962;DHT22;39868;53.398;6.564;2023-07-29T09:38:05;23.70;79.70
53962;DHT22;39868;53.398;6.564;2023-07-29T09:40:34;23.70;79.50
53962;DHT22;39868;53.398;6.564;2023-07-29T09:43:02;23.70;79.50
53962;DHT22;39868;53.398;6.564;2023-07-29T09:45:32;23.80;79.30
53962;DHT22;39868;53.398;6.564;2023-07-29T09:48:00;23.80;79.40
53962;DHT22;39868;53.398;6.564;2023-07-29T09:50:27;23.90;79.40
53962;DHT22;39868;53.398;6.564;2023-07-29T09:52:55;23.90;79.40
53962;DHT22;39868;53.398;6.564;2023-07-29T09:55:22;24.00;79.00
53962;DHT22;39868;53.398;6.564;2023-07-29T09:57:59;24.00;78.80
53962;DHT22;39868;53.398;6.564;2023-07-29T10:00:29;24.10;78.90
53962;DHT22;39868;53.398;6.564;2023-07-29T10:02:57;24.20;79.00
53962;DHT22;39868;53.398;6.564;2023-07-29T10:05:27;24.20;78.90
53962;DHT22;39868;53.398;6.564;2023-07-29T10:07:55;24.30;78.60
53962;DHT22;39868;53.398;6.564;2023-07-29T10:10:23;24.40;78.70
53962;DHT22;39868;53.398;6.564;2023-07-29T10:12:50;24.50;78.60
53962;DHT22;39868;53.398;6.564;2023-07-29T10:15:17;24.60;78.50
53962;DHT22;39868;53.398;6.564;2023-07-29T10:17:45;24.70;77.80
53962;DHT22;39868;53.398;6.564;2023-07-29T10:20:15;24.70;77.70
53962;DHT22;39868;53.398;6.564;2023-07-29T10:22:44;24.80;77.80
53962;DHT22;39868;53.398;6.564;2023-07-29T10:25:17;24.90;78.00
53962;DHT22;39868;53.398;6.564;2023-07-29T10:30:15;25.00;77.10
53962;DHT22;39868;53.398;6.564;2023-07-29T10:32:43;25.00;76.90
53962;DHT22;39868;53.398;6.564;2023-07-29T10:35:12;25.10;77.00
53962;DHT22;39868;53.398;6.564;2023-07-29T10:37:40;25.10;76.90
53962;DHT22;39868;53.398;6.564;2023-07-29T10:40:09;25.10;76.80
53962;DHT22;39868;53.398;6.564;2023-07-29T10:42:37;25.10;77.00
53962;DHT22;39868;53.398;6.564;2023-07-29T10:45:17;25.10;76.80
53962;DHT22;39868;53.398;6.564;2023-07-29T10:47:44;25.20;76.90
53962;DHT22;39868;53.398;6.564;2023-07-29T10:50:18;25.20;76.40
53962;DHT22;39868;53.398;6.564;2023-07-29T10:52:52;25.20;76.40
53962;DHT22;39868;53.398;6.564;2023-07-29T10:55:30;25.20;76.30
53962;DHT22;39868;53.398;6.564;2023-07-29T10:58:05;25.20;75.90
53962;DHT22;39868;53.398;6.564;2023-07-29T11:00:33;25.20;75.60
53962;DHT22;39868;53.398;6.564;2023-07-29T11:03:05;25.20;75.90
53962;DHT22;39868;53.398;6.564;2023-07-29T11:05:42;25.30;75.80
53962;DHT22;39868;53.398;6.564;2023-07-29T11:08:19;25.30;75.70
53962;DHT22;39868;53.398;6.564;2023-07-29T11:11:05;25.30;76.10
53962;DHT22;39868;53.398;6.564;2023-07-29T11:13:36;25.30;75.70
53962;DHT22;39868;53.398;6.564;2023-07-29T11:16:04;25.30;75.70
53962;DHT22;39868;53.398;6.564;2023-07-29T11:18:32;25.30;75.70
53962;DHT22;39868;53.398;6.564;2023-07-29T11:21:01;25.30;75.40
53962;DHT22;39868;53.398;6.564;2023-07-29T11:25:57;25.20;75.10
53962;DHT22;39868;53.398;6.564;2023-07-29T11:28:25;25.10;75.10
53962;DHT22;39868;53.398;6.564;2023-07-29T11:30:56;25.10;75.10
53962;DHT22;39868;53.398;6.564;2023-07-29T11:33:25;25.10;74.50
53962;DHT22;39868;53.398;6.564;2023-07-29T11:35:52;25.10;74.60
53962;DHT22;39868;53.398;6.564;2023-07-29T11:38:20;25.00;74.70
53962;DHT22;39868;53.398;6.564;2023-07-29T11:41:21;25.00;74.90
53962;DHT22;39868;53.398;6.564;2023-07-29T11:43:41;25.00;75.20
53962;DHT22;39868;53.398;6.564;2023-07-29T11:46:10;25.10;75.70
53962;DHT22;39868;53.398;6.564;2023-07-29T11:48:37;25.10;75.70
53962;DHT22;39868;53.398;6.564;2023-07-29T11:51:04;25.10;75.80
53962;DHT22;39868;53.398;6.564;2023-07-29T11:53:32;25.20;76.00
53962;DHT22;39868;53.398;6.564;2023-07-29T11:55:59;25.20;76.00
53962;DHT22;39868;53.398;6.564;2023-07-29T11:58:26;25.20;75.80
53962;DHT22;39868;53.398;6.564;2023-07-29T12:00:53;25.20;75.70
53962;DHT22;39868;53.398;6.564;2023-07-29T12:03:21;25.10;75.50
53962;DHT22;39868;53.398;6.564;2023-07-29T12:05:49;25.10;75.00
53962;DHT22;39868;53.398;6.564;2023-07-29T12:08:16;25.00;74.70
53962;DHT22;39868;53.398;6.564;2023-07-29T12:10:44;24.90;74.40
53962;DHT22;39868;53.398;6.564;2023-07-29T12:13:11;24.80;74.10
53962;DHT22;39868;53.398;6.564;2023-07-29T12:15:38;24.60;73.50
53962;DHT22;39868;53.398;6.564;2023-07-29T12:18:07;24.50;73.80
53962;DHT22;39868;53.398;6.564;2023-07-29T12:20:35;24.30;73.70
53962;DHT22;39868;53.398;6.564;2023-07-29T12:23:02;24.20;74.00
53962;DHT22;39868;53.398;6.564;2023-07-29T12:25:29;24.00;74.20
53962;DHT22;39868;53.398;6.564;2023-07-29T12:28:01;23.90;74.50
53962;DHT22;39868;53.398;6.564;2023-07-29T12:30:29;23.80;74.80
53962;DHT22;39868;53.398;6.564;2023-07-29T12:32:56;23.70;75.00
53962;DHT22;39868;53.398;6.564;2023-07-29T12:35:24;23.60;75.20
53962;DHT22;39868;53.398;6.564;2023-07-29T12:38:00;23.60;75.30
53962;DHT22;39868;53.398;6.564;2023-07-29T12:40:28;23.60;75.80
53962;DHT22;39868;53.398;6.564;2023-07-29T12:42:55;23.60;76.10
53962;DHT22;39868;53.398;6.564;2023-07-29T12:45:22;23.70;76.40
53962;DHT22;39868;53.398;6.564;2023-07-29T12:47:53;23.70;76.40
53962;DHT22;39868;53.398;6.564;2023-07-29T12:50:21;23.70;76.40
53962;DHT22;39868;53.398;6.564;2023-07-29T12:52:48;23.70;76.40
53962;DHT22;39868;53.398;6.564;2023-07-29T12:55:15;23.70;76.30
53962;DHT22;39868;53.398;6.564;2023-07-29T12:57:46;23.70;76.30
53962;DHT22;39868;53.398;6.564;2023-07-29T13:00:13;23.70;76.20
53962;DHT22;39868;53.398;6.564;2023-07-29T13:02:41;23.70;76.20
53962;DHT22;39868;53.398;6.564;2023-07-29T13:05:11;23.60;76.20
53962;DHT22;39868;53.398;6.564;2023-07-29T13:07:39;23.60;76.20
53962;DHT22;39868;53.398;6.564;2023-07-29T13:10:07;23.60;76.30
53962;DHT22;39868;53.398;6.564;2023-07-29T13:12:34;23.60;76.40
53962;DHT22;39868;53.398;6.564;2023-07-29T13:15:02;23.60;76.40
53962;DHT22;39868;53.398;6.564;2023-07-29T13:17:29;23.60;76.30
53962;DHT22;39868;53.398;6.564;2023-07-29T13:19:57;23.70;76.30
53962;DHT22;39868;53.398;6.564;2023-07-29T13:22:24;23.70;76.50
53962;DHT22;39868;53.398;6.564;2023-07-29T13:24:51;23.80;76.60
53962;DHT22;39868;53.398;6.564;2023-07-29T13:27:18;23.90;76.40
53962;DHT22;39868;53.398;6.564;2023-07-29T13:29:46;23.90;75.80
53962;DHT22;39868;53.398;6.564;2023-07-29T13:32:14;24.00;75.60
53962;DHT22;39868;53.398;6.564;2023-07-29T13:34:41;24.00;75.40
53962;DHT22;39868;53.398;6.564;2023-07-29T13:37:08;24.10;75.10
53962;DHT22;39868;53.398;6.564;2023-07-29T13:39:35;24.10;74.70
53962;DHT22;39868;53.398;6.564;2023-07-29T13:42:02;24.20;74.90
53962;DHT22;39868;53.398;6.564;2023-07-29T13:44:30;24.30;74.90
53962;DHT22;39868;53.398;6.564;2023-07-29T13:46:57;24.40;74.80
53962;DHT22;39868;53.398;6.564;2023-07-29T13:49:24;24.50;74.20
53962;DHT22;39868;53.398;6.564;2023-07-29T13:51:52;24.60;74.10
53962;DHT22;39868;53.398;6.564;2023-07-29T13:54:19;24.70;74.00
53962;DHT22;39868;53.398;6.564;2023-07-29T13:56:46;24.90;73.80
53962;DHT22;39868;53.398;6.564;2023-07-29T13:59:14;25.00;73.50
53962;DHT22;39868;53.398;6.564;2023-07-29T14:01:41;25.00;72.80
53962;DHT22;39868;53.398;6.564;2023-07-29T14:04:09;25.00;72.60
53962;DHT22;39868;53.398;6.564;2023-07-29T14:06:36;25.10;72.00
53962;DHT22;39868;53.398;6.564;2023-07-29T14:09:12;25.10;71.80
53962;DHT22;39868;53.398;6.564;2023-07-29T14:11:40;25.10;71.90
53962;DHT22;39868;53.398;6.564;2023-07-29T14:14:07;25.10;71.90
53962;DHT22;39868;53.398;6.564;2023-07-29T14:16:34;25.20;72.20
53962;DHT22;39868;53.398;6.564;2023-07-29T14:19:02;25.30;71.40
53962;DHT22;39868;53.398;6.564;2023-07-29T14:21:30;25.30;71.60
53962;DHT22;39868;53.398;6.564;2023-07-29T14:23:57;25.40;71.30
53962;DHT22;39868;53.398;6.564;2023-07-29T14:26:24;25.50;70.90
53962;DHT22;39868;53.398;6.564;2023-07-29T14:28:52;25.60;70.60
53962;DHT22;39868;53.398;6.564;2023-07-29T14:31:19;25.60;69.80
53962;DHT22;39868;53.398;6.564;2023-07-29T14:33:46;25.70;70.00
53962;DHT22;39868;53.398;6.564;2023-07-29T14:36:14;25.80;69.50
53962;DHT22;39868;53.398;6.564;2023-07-29T14:38:41;25.80;69.40
53962;DHT22;39868;53.398;6.564;2023-07-29T14:41:08;25.90;69.40
53962;DHT22;39868;53.398;6.564;2023-07-29T14:43:36;26.00;69.40
53962;DHT22;39868;53.398;6.564;2023-07-29T14:46:03;26.00;68.50
53962;DHT22;39868;53.398;6.564;2023-07-29T14:48:30;25.90;68.40
53962;DHT22;39868;53.398;6.564;2023-07-29T14:50:57;26.00;68.70
53962;DHT22;39868;53.398;6.564;2023-07-29T14:53:25;26.00;68.50
53962;DHT22;39868;53.398;6.564;2023-07-29T14:55:52;26.00;68.00
53962;DHT22;39868;53.398;6.564;2023-07-29T14:58:19;26.00;68.20
53962;DHT22;39868;53.398;6.564;2023-07-29T15:00:47;26.00;67.60
53962;DHT22;39868;53.398;6.564;2023-07-29T15:03:14;26.00;67.40
53962;DHT22;39868;53.398;6.564;2023-07-29T15:05:41;26.00;67.40
53962;DHT22;39868;53.398;6.564;2023-07-29T15:08:09;26.00;67.20
53962;DHT22;39868;53.398;6.564;2023-07-29T15:10:36;26.00;67.40
53962;DHT22;39868;53.398;6.564;2023-07-29T15:13:03;26.10;66.90
53962;DHT22;39868;53.398;6.564;2023-07-29T15:15:30;26.10;67.00
53962;DHT22;39868;53.398;6.564;2023-07-29T15:17:58;26.00;66.80
53962;DHT22;39868;53.398;6.564;2023-07-29T15:20:25;26.10;67.00
53962;DHT22;39868;53.398;6.564;2023-07-29T15:22:52;26.10;66.80
53962;DHT22;39868;53.398;6.564;2023-07-29T15:25:19;26.20;66.70
53962;DHT22;39868;53.398;6.564;2023-07-29T15:27:47;26.20;66.30
53962;DHT22;39868;53.398;6.564;2023-07-29T15:30:14;26.20;66.10
53962;DHT22;39868;53.398;6.564;2023-07-29T15:32:41;26.20;66.40
53962;DHT22;39868;53.398;6.564;2023-07-29T15:35:09;26.20;65.90
53962;DHT22;39868;53.398;6.564;2023-07-29T15:37:36;26.10;65.40
53962;DHT22;39868;53.398;6.564;2023-07-29T15:40:04;26.10;65.00
53962;DHT22;39868;53.398;6.564;2023-07-29T15:42:31;26.10;65.40
53962;DHT22;39868;53.398;6.564;2023-07-29T15:44:59;26.10;65.40
53962;DHT22;39868;53.398;6.564;2023-07-29T15:47:26;26.00;65.60
53962;DHT22;39868;53.398;6.564;2023-07-29T15:49:53;26.10;65.50
53962;DHT22;39868;53.398;6.564;2023-07-29T15:52:20;26.10;65.80